KPIR/PIR METAR and TAF weather

Enter ICAO airport designator
Station Type Date Time Source
KPIR METAR 2019/04/20 17:53 UTC NOAA

KPIR 201753Z AUTO 14014G20KT 10SM CLR 28/09 A2960 RMK AO2 SLP013 T02780089 10278 20078 58021


Station Type Date Time Source
KPIR Decoded METAR 2019/04/20 17:53 UTC NOAA

PIERRE REGIONAL AIRPORT, SD, United States (KPIR) 44-23N 100-17W 526M
Apr 20, 2019 - 01:53 PM EDT / 2019.04.20 1753 UTC
Wind: from the SE (140 degrees) at 16 MPH (14 KT) gusting to 23 MPH (20 KT):0
Visibility: 10 mile(s):0
Sky conditions: clear
Temperature: 82.0 F (27.8 C)
Dew Point: 48.0 F (8.9 C)
Relative Humidity: 30%
Pressure (altimeter): 29.6 in. Hg (1002 hPa)
Pressure tendency: 0.06 inches (2.1 hPa) lower than three hours ago
ob: KPIR 201753Z AUTO 14014G20KT 10SM CLR 28/09 A2960 RMK AO2 SLP013 T02780089 10278 20078 58021
cycle: 18

Station Type Date Time Source
KPIR TAF 2019/04/20 18:22 UTC NOAA

TAF KPIR 201720Z 2018/2118 16010KT P6SM FEW250
FM210300 03014G20KT P6SM FEW250
FM211100 03011G18KT P6SM BKN025
FM211700 03015G23KT P6SM OVC014

Example: see airport list